sensor_id;sensor_type;location;lat;lon;timestamp;P1;durP1;ratioP1;P2;durP2;ratioP2
15240;SDS011;7723;52.170;9.978;2022-08-01T00:02:14;5.40;;;4.90;;
15240;SDS011;7723;52.170;9.978;2022-08-01T00:04:41;5.43;;;4.90;;
15240;SDS011;7723;52.170;9.978;2022-08-01T00:07:08;5.60;;;5.05;;
15240;SDS011;7723;52.170;9.978;2022-08-01T00:09:36;5.43;;;4.70;;
15240;SDS011;7723;52.170;9.978;2022-08-01T00:12:04;4.55;;;4.15;;
15240;SDS011;7723;52.170;9.978;2022-08-01T00:14:32;5.03;;;4.45;;
15240;SDS011;7723;52.170;9.978;2022-08-01T00:16:59;4.75;;;4.35;;
15240;SDS011;7723;52.170;9.978;2022-08-01T00:19:26;5.63;;;4.82;;
15240;SDS011;7723;52.170;9.978;2022-08-01T00:21:53;4.10;;;3.70;;
15240;SDS011;7723;52.170;9.978;2022-08-01T00:24:20;7.07;;;5.20;;
15240;SDS011;7723;52.170;9.978;2022-08-01T00:26:47;5.57;;;4.97;;
15240;SDS011;7723;52.170;9.978;2022-08-01T00:29:16;5.20;;;4.70;;
15240;SDS011;7723;52.170;9.978;2022-08-01T00:31:43;5.25;;;4.70;;
15240;SDS011;7723;52.170;9.978;2022-08-01T00:34:10;5.68;;;4.70;;
15240;SDS011;7723;52.170;9.978;2022-08-01T00:36:37;5.47;;;4.97;;
15240;SDS011;7723;52.170;9.978;2022-08-01T00:39:04;5.95;;;4.90;;
15240;SDS011;7723;52.170;9.978;2022-08-01T00:41:31;6.35;;;5.55;;
15240;SDS011;7723;52.170;9.978;2022-08-01T00:44:01;6.32;;;4.72;;
15240;SDS011;7723;52.170;9.978;2022-08-01T00:46:30;6.20;;;4.88;;
15240;SDS011;7723;52.170;9.978;2022-08-01T00:48:58;5.45;;;4.60;;
15240;SDS011;7723;52.170;9.978;2022-08-01T00:51:25;6.07;;;4.95;;
15240;SDS011;7723;52.170;9.978;2022-08-01T00:53:53;6.63;;;5.25;;
15240;SDS011;7723;52.170;9.978;2022-08-01T00:56:21;4.57;;;4.18;;
15240;SDS011;7723;52.170;9.978;2022-08-01T00:58:50;6.53;;;4.28;;
15240;SDS011;7723;52.170;9.978;2022-08-01T01:01:17;5.10;;;4.28;;
15240;SDS011;7723;52.170;9.978;2022-08-01T01:03:48;4.63;;;4.05;;
15240;SDS011;7723;52.170;9.978;2022-08-01T01:06:23;5.30;;;4.47;;
15240;SDS011;7723;52.170;9.978;2022-08-01T01:08:56;6.40;;;4.57;;
15240;SDS011;7723;52.170;9.978;2022-08-01T01:11:36;5.15;;;4.65;;
15240;SDS011;7723;52.170;9.978;2022-08-01T01:14:13;4.05;;;3.72;;
15240;SDS011;7723;52.170;9.978;2022-08-01T01:16:49;4.20;;;3.65;;
15240;SDS011;7723;52.170;9.978;2022-08-01T01:19:20;5.70;;;4.28;;
15240;SDS011;7723;52.170;9.978;2022-08-01T01:22:00;5.22;;;3.95;;
15240;SDS011;7723;52.170;9.978;2022-08-01T01:24:40;4.80;;;3.35;;
15240;SDS011;7723;52.170;9.978;2022-08-01T01:27:22;5.43;;;3.67;;
15240;SDS011;7723;52.170;9.978;2022-08-01T01:29:59;6.72;;;3.30;;
15240;SDS011;7723;52.170;9.978;2022-08-01T01:32:28;3.95;;;3.55;;
15240;SDS011;7723;52.170;9.978;2022-08-01T01:34:59;4.45;;;3.63;;
15240;SDS011;7723;52.170;9.978;2022-08-01T01:37:29;4.30;;;3.78;;
15240;SDS011;7723;52.170;9.978;2022-08-01T01:39:59;4.18;;;3.65;;
15240;SDS011;7723;52.170;9.978;2022-08-01T01:42:29;3.33;;;3.00;;
15240;SDS011;7723;52.170;9.978;2022-08-01T01:44:59;3.75;;;3.15;;
15240;SDS011;7723;52.170;9.978;2022-08-01T01:47:29;5.68;;;3.40;;
15240;SDS011;7723;52.170;9.978;2022-08-01T01:49:57;4.97;;;3.60;;
15240;SDS011;7723;52.170;9.978;2022-08-01T01:52:26;4.65;;;3.08;;
15240;SDS011;7723;52.170;9.978;2022-08-01T01:54:55;6.32;;;3.78;;
15240;SDS011;7723;52.170;9.978;2022-08-01T01:57:25;4.28;;;3.53;;
15240;SDS011;7723;52.170;9.978;2022-08-01T01:59:54;4.88;;;3.38;;
15240;SDS011;7723;52.170;9.978;2022-08-01T02:02:24;3.60;;;3.10;;
15240;SDS011;7723;52.170;9.978;2022-08-01T02:04:52;3.45;;;2.80;;
15240;SDS011;7723;52.170;9.978;2022-08-01T02:07:24;3.58;;;2.97;;
15240;SDS011;7723;52.170;9.978;2022-08-01T02:09:52;3.17;;;2.88;;
15240;SDS011;7723;52.170;9.978;2022-08-01T02:12:21;3.55;;;2.60;;
15240;SDS011;7723;52.170;9.978;2022-08-01T02:14:50;3.22;;;2.63;;
15240;SDS011;7723;52.170;9.978;2022-08-01T02:17:19;4.57;;;2.67;;
15240;SDS011;7723;52.170;9.978;2022-08-01T02:19:48;3.00;;;2.65;;
15240;SDS011;7723;52.170;9.978;2022-08-01T02:22:16;4.25;;;2.42;;
15240;SDS011;7723;52.170;9.978;2022-08-01T02:24:49;3.30;;;2.70;;
15240;SDS011;7723;52.170;9.978;2022-08-01T02:27:25;3.50;;;2.65;;
15240;SDS011;7723;52.170;9.978;2022-08-01T02:29:56;6.13;;;2.60;;
15240;SDS011;7723;52.170;9.978;2022-08-01T02:32:25;6.97;;;2.78;;
15240;SDS011;7723;52.170;9.978;2022-08-01T02:34:58;5.40;;;3.17;;
15240;SDS011;7723;52.170;9.978;2022-08-01T02:37:29;4.50;;;3.45;;
15240;SDS011;7723;52.170;9.978;2022-08-01T02:40:00;5.00;;;3.92;;
15240;SDS011;7723;52.170;9.978;2022-08-01T02:42:27;7.15;;;4.78;;
15240;SDS011;7723;52.170;9.978;2022-08-01T02:44:58;5.80;;;4.10;;
15240;SDS011;7723;52.170;9.978;2022-08-01T02:47:26;5.97;;;4.68;;
15240;SDS011;7723;52.170;9.978;2022-08-01T02:49:55;5.07;;;4.20;;
15240;SDS011;7723;52.170;9.978;2022-08-01T02:52:25;4.57;;;4.07;;
15240;SDS011;7723;52.170;9.978;2022-08-01T02:54:55;5.85;;;4.68;;
15240;SDS011;7723;52.170;9.978;2022-08-01T02:57:23;7.28;;;5.03;;
15240;SDS011;7723;52.170;9.978;2022-08-01T02:59:52;5.85;;;4.20;;
15240;SDS011;7723;52.170;9.978;2022-08-01T03:02:21;4.50;;;2.90;;
15240;SDS011;7723;52.170;9.978;2022-08-01T03:04:50;3.10;;;2.42;;
15240;SDS011;7723;52.170;9.978;2022-08-01T03:07:19;3.17;;;2.53;;
15240;SDS011;7723;52.170;9.978;2022-08-01T03:09:50;2.55;;;1.90;;
15240;SDS011;7723;52.170;9.978;2022-08-01T03:12:20;3.00;;;2.30;;
15240;SDS011;7723;52.170;9.978;2022-08-01T03:14:52;2.47;;;1.70;;
15240;SDS011;7723;52.170;9.978;2022-08-01T03:17:23;1.75;;;1.65;;
15240;SDS011;7723;52.170;9.978;2022-08-01T03:19:53;3.70;;;2.13;;
15240;SDS011;7723;52.170;9.978;2022-08-01T03:22:22;2.75;;;1.90;;
15240;SDS011;7723;52.170;9.978;2022-08-01T03:24:52;2.65;;;2.30;;
15240;SDS011;7723;52.170;9.978;2022-08-01T03:27:22;2.60;;;1.98;;
15240;SDS011;7723;52.170;9.978;2022-08-01T03:29:50;2.88;;;2.25;;
15240;SDS011;7723;52.170;9.978;2022-08-01T03:32:21;2.63;;;2.40;;
15240;SDS011;7723;52.170;9.978;2022-08-01T03:34:49;2.78;;;2.50;;
15240;SDS011;7723;52.170;9.978;2022-08-01T03:37:26;3.85;;;2.70;;
15240;SDS011;7723;52.170;9.978;2022-08-01T03:40:00;4.47;;;3.13;;
15240;SDS011;7723;52.170;9.978;2022-08-01T03:42:32;4.28;;;3.05;;
15240;SDS011;7723;52.170;9.978;2022-08-01T03:45:02;4.90;;;3.80;;
15240;SDS011;7723;52.170;9.978;2022-08-01T03:47:34;4.53;;;4.05;;
15240;SDS011;7723;52.170;9.978;2022-08-01T03:50:02;4.82;;;4.13;;
15240;SDS011;7723;52.170;9.978;2022-08-01T03:52:32;6.00;;;4.22;;
15240;SDS011;7723;52.170;9.978;2022-08-01T03:55:03;6.18;;;4.53;;
15240;SDS011;7723;52.170;9.978;2022-08-01T03:57:32;6.47;;;4.65;;
15240;SDS011;7723;52.170;9.978;2022-08-01T04:00:00;5.10;;;4.57;;
15240;SDS011;7723;52.170;9.978;2022-08-01T04:02:31;6.15;;;4.47;;
15240;SDS011;7723;52.170;9.978;2022-08-01T04:04:58;4.35;;;3.95;;
15240;SDS011;7723;52.170;9.978;2022-08-01T04:07:27;4.72;;;4.18;;
15240;SDS011;7723;52.170;9.978;2022-08-01T04:09:55;5.85;;;4.22;;
15240;SDS011;7723;52.170;9.978;2022-08-01T04:12:24;5.97;;;4.38;;
15240;SDS011;7723;52.170;9.978;2022-08-01T04:14:51;5.35;;;3.85;;
15240;SDS011;7723;52.170;9.978;2022-08-01T04:17:18;4.90;;;3.65;;
15240;SDS011;7723;52.170;9.978;2022-08-01T04:19:45;5.05;;;4.43;;
15240;SDS011;7723;52.170;9.978;2022-08-01T04:22:13;4.57;;;4.00;;
15240;SDS011;7723;52.170;9.978;2022-08-01T04:24:41;3.95;;;3.40;;
15240;SDS011;7723;52.170;9.978;2022-08-01T04:27:16;5.47;;;4.10;;
15240;SDS011;7723;52.170;9.978;2022-08-01T04:29:48;3.92;;;3.50;;
15240;SDS011;7723;52.170;9.978;2022-08-01T04:32:17;6.60;;;3.60;;
15240;SDS011;7723;52.170;9.978;2022-08-01T04:34:47;5.28;;;4.07;;
15240;SDS011;7723;52.170;9.978;2022-08-01T04:37:15;4.95;;;4.28;;
15240;SDS011;7723;52.170;9.978;2022-08-01T04:39:43;4.57;;;3.90;;
15240;SDS011;7723;52.170;9.978;2022-08-01T04:42:12;4.38;;;3.75;;
15240;SDS011;7723;52.170;9.978;2022-08-01T04:44:40;5.20;;;3.30;;
15240;SDS011;7723;52.170;9.978;2022-08-01T04:47:09;5.38;;;3.70;;
15240;SDS011;7723;52.170;9.978;2022-08-01T04:49:38;4.75;;;3.92;;
15240;SDS011;7723;52.170;9.978;2022-08-01T04:52:06;4.15;;;3.28;;
15240;SDS011;7723;52.170;9.978;2022-08-01T04:54:34;5.93;;;3.97;;
15240;SDS011;7723;52.170;9.978;2022-08-01T04:57:05;5.15;;;3.40;;
15240;SDS011;7723;52.170;9.978;2022-08-01T04:59:33;5.07;;;4.25;;
15240;SDS011;7723;52.170;9.978;2022-08-01T05:02:06;5.18;;;4.10;;
15240;SDS011;7723;52.170;9.978;2022-08-01T05:04:36;4.68;;;3.70;;
15240;SDS011;7723;52.170;9.978;2022-08-01T05:07:05;6.93;;;4.25;;
15240;SDS011;7723;52.170;9.978;2022-08-01T05:09:32;4.70;;;3.55;;
15240;SDS011;7723;52.170;9.978;2022-08-01T05:12:01;4.05;;;3.47;;
15240;SDS011;7723;52.170;9.978;2022-08-01T05:14:29;5.88;;;3.80;;
15240;SDS011;7723;52.170;9.978;2022-08-01T05:16:57;5.85;;;3.70;;
15240;SDS011;7723;52.170;9.978;2022-08-01T05:19:29;6.38;;;3.55;;
15240;SDS011;7723;52.170;9.978;2022-08-01T05:21:58;4.70;;;3.45;;
15240;SDS011;7723;52.170;9.978;2022-08-01T05:24:25;4.70;;;3.65;;
15240;SDS011;7723;52.170;9.978;2022-08-01T05:26:53;5.88;;;4.47;;
15240;SDS011;7723;52.170;9.978;2022-08-01T05:29:20;4.65;;;4.15;;
15240;SDS011;7723;52.170;9.978;2022-08-01T05:31:48;5.25;;;4.47;;
15240;SDS011;7723;52.170;9.978;2022-08-01T05:34:15;5.10;;;4.18;;
15240;SDS011;7723;52.170;9.978;2022-08-01T05:36:43;9.10;;;4.65;;
15240;SDS011;7723;52.170;9.978;2022-08-01T05:39:11;5.25;;;4.53;;
15240;SDS011;7723;52.170;9.978;2022-08-01T05:41:38;5.00;;;4.32;;
15240;SDS011;7723;52.170;9.978;2022-08-01T05:44:06;5.50;;;3.92;;
15240;SDS011;7723;52.170;9.978;2022-08-01T05:46:33;6.13;;;4.53;;
15240;SDS011;7723;52.170;9.978;2022-08-01T05:49:00;5.57;;;4.07;;
15240;SDS011;7723;52.170;9.978;2022-08-01T05:51:29;5.43;;;4.00;;
15240;SDS011;7723;52.170;9.978;2022-08-01T05:53:58;5.35;;;4.32;;
15240;SDS011;7723;52.170;9.978;2022-08-01T05:56:25;7.53;;;4.45;;
15240;SDS011;7723;52.170;9.978;2022-08-01T05:58:52;5.82;;;4.50;;
15240;SDS011;7723;52.170;9.978;2022-08-01T06:01:20;4.35;;;3.83;;
15240;SDS011;7723;52.170;9.978;2022-08-01T06:03:47;3.58;;;2.80;;
15240;SDS011;7723;52.170;9.978;2022-08-01T06:06:14;2.08;;;1.70;;
15240;SDS011;7723;52.170;9.978;2022-08-01T06:08:41;1.88;;;1.38;;
15240;SDS011;7723;52.170;9.978;2022-08-01T06:11:10;2.75;;;1.40;;
15240;SDS011;7723;52.170;9.978;2022-08-01T06:13:37;2.90;;;1.52;;
15240;SDS011;7723;52.170;9.978;2022-08-01T06:16:04;2.05;;;1.50;;
15240;SDS011;7723;52.170;9.978;2022-08-01T06:18:31;1.95;;;1.75;;
15240;SDS011;7723;52.170;9.978;2022-08-01T06:20:58;1.20;;;1.10;;
15240;SDS011;7723;52.170;9.978;2022-08-01T06:23:25;1.33;;;1.23;;
15240;SDS011;7723;52.170;9.978;2022-08-01T06:25:53;1.48;;;1.20;;
15240;SDS011;7723;52.170;9.978;2022-08-01T06:28:21;1.40;;;1.17;;
15240;SDS011;7723;52.170;9.978;2022-08-01T06:30:49;2.10;;;1.38;;
15240;SDS011;7723;52.170;9.978;2022-08-01T06:33:16;1.42;;;1.30;;
15240;SDS011;7723;52.170;9.978;2022-08-01T06:35:43;3.05;;;1.45;;
15240;SDS011;7723;52.170;9.978;2022-08-01T06:38:10;1.67;;;1.17;;
15240;SDS011;7723;52.170;9.978;2022-08-01T06:40:38;1.48;;;1.33;;
15240;SDS011;7723;52.170;9.978;2022-08-01T06:43:05;2.00;;;1.52;;
15240;SDS011;7723;52.170;9.978;2022-08-01T06:45:34;1.80;;;1.45;;
15240;SDS011;7723;52.170;9.978;2022-08-01T06:48:01;1.65;;;1.55;;
15240;SDS011;7723;52.170;9.978;2022-08-01T06:50:30;2.00;;;1.75;;
15240;SDS011;7723;52.170;9.978;2022-08-01T06:52:57;2.27;;;1.77;;
15240;SDS011;7723;52.170;9.978;2022-08-01T06:55:24;1.95;;;1.50;;
15240;SDS011;7723;52.170;9.978;2022-08-01T06:57:52;2.85;;;1.98;;
15240;SDS011;7723;52.170;9.978;2022-08-01T07:00:19;2.92;;;1.50;;
15240;SDS011;7723;52.170;9.978;2022-08-01T07:02:49;1.88;;;1.55;;
15240;SDS011;7723;52.170;9.978;2022-08-01T07:05:17;2.85;;;1.85;;
15240;SDS011;7723;52.170;9.978;2022-08-01T07:07:45;1.50;;;1.40;;
15240;SDS011;7723;52.170;9.978;2022-08-01T07:10:12;2.83;;;1.70;;
15240;SDS011;7723;52.170;9.978;2022-08-01T07:12:39;2.47;;;1.77;;
15240;SDS011;7723;52.170;9.978;2022-08-01T07:15:07;2.55;;;2.00;;
15240;SDS011;7723;52.170;9.978;2022-08-01T07:17:36;4.05;;;2.13;;
15240;SDS011;7723;52.170;9.978;2022-08-01T07:20:07;2.28;;;2.08;;
15240;SDS011;7723;52.170;9.978;2022-08-01T07:22:35;1.60;;;1.50;;
15240;SDS011;7723;52.170;9.978;2022-08-01T07:25:03;1.65;;;1.20;;
15240;SDS011;7723;52.170;9.978;2022-08-01T07:27:31;1.50;;;1.40;;
15240;SDS011;7723;52.170;9.978;2022-08-01T07:29:59;1.05;;;0.95;;
15240;SDS011;7723;52.170;9.978;2022-08-01T07:32:26;2.08;;;1.20;;
15240;SDS011;7723;52.170;9.978;2022-08-01T07:34:54;1.27;;;1.17;;
15240;SDS011;7723;52.170;9.978;2022-08-01T07:37:23;1.85;;;1.40;;
15240;SDS011;7723;52.170;9.978;2022-08-01T07:39:50;1.73;;;1.38;;
15240;SDS011;7723;52.170;9.978;2022-08-01T07:42:17;2.85;;;1.75;;
15240;SDS011;7723;52.170;9.978;2022-08-01T07:44:44;2.72;;;1.90;;
15240;SDS011;7723;52.170;9.978;2022-08-01T07:47:11;1.80;;;1.70;;
15240;SDS011;7723;52.170;9.978;2022-08-01T07:49:39;2.20;;;1.67;;
15240;SDS011;7723;52.170;9.978;2022-08-01T07:52:06;2.15;;;1.95;;
15240;SDS011;7723;52.170;9.978;2022-08-01T07:54:35;2.00;;;1.85;;
15240;SDS011;7723;52.170;9.978;2022-08-01T07:57:03;2.63;;;1.77;;
15240;SDS011;7723;52.170;9.978;2022-08-01T07:59:30;2.28;;;1.70;;
15240;SDS011;7723;52.170;9.978;2022-08-01T08:01:57;1.90;;;1.80;;
15240;SDS011;7723;52.170;9.978;2022-08-01T08:04:24;4.32;;;2.13;;
15240;SDS011;7723;52.170;9.978;2022-08-01T08:06:52;1.92;;;1.50;;
15240;SDS011;7723;52.170;9.978;2022-08-01T08:09:19;2.28;;;2.08;;
15240;SDS011;7723;52.170;9.978;2022-08-01T08:11:48;2.70;;;1.45;;
15240;SDS011;7723;52.170;9.978;2022-08-01T08:14:15;3.13;;;1.50;;
15240;SDS011;7723;52.170;9.978;2022-08-01T08:16:42;1.80;;;1.70;;
15240;SDS011;7723;52.170;9.978;2022-08-01T08:19:10;1.58;;;1.48;;
15240;SDS011;7723;52.170;9.978;2022-08-01T08:21:37;2.15;;;1.83;;
15240;SDS011;7723;52.170;9.978;2022-08-01T08:24:04;1.98;;;1.75;;
15240;SDS011;7723;52.170;9.978;2022-08-01T08:26:51;3.00;;;1.90;;
15240;SDS011;7723;52.170;9.978;2022-08-01T08:29:20;2.20;;;2.00;;
15240;SDS011;7723;52.170;9.978;2022-08-01T08:31:47;3.63;;;2.38;;
15240;SDS011;7723;52.170;9.978;2022-08-01T08:34:16;2.65;;;1.60;;
15240;SDS011;7723;52.170;9.978;2022-08-01T08:36:43;1.70;;;1.30;;
15240;SDS011;7723;52.170;9.978;2022-08-01T08:39:10;2.80;;;2.00;;
15240;SDS011;7723;52.170;9.978;2022-08-01T08:41:38;2.95;;;2.00;;
15240;SDS011;7723;52.170;9.978;2022-08-01T08:44:07;1.90;;;1.80;;
15240;SDS011;7723;52.170;9.978;2022-08-01T08:46:37;1.38;;;1.20;;
15240;SDS011;7723;52.170;9.978;2022-08-01T08:49:08;1.80;;;1.60;;
15240;SDS011;7723;52.170;9.978;2022-08-01T08:51:37;1.65;;;1.50;;
15240;SDS011;7723;52.170;9.978;2022-08-01T08:54:06;1.80;;;1.70;;
15240;SDS011;7723;52.170;9.978;2022-08-01T08:56:34;1.50;;;1.40;;
15240;SDS011;7723;52.170;9.978;2022-08-01T08:59:02;2.92;;;1.90;;
15240;SDS011;7723;52.170;9.978;2022-08-01T09:01:31;1.75;;;1.65;;
15240;SDS011;7723;52.170;9.978;2022-08-01T09:04:00;2.85;;;2.03;;
15240;SDS011;7723;52.170;9.978;2022-08-01T09:06:28;1.65;;;1.55;;
15240;SDS011;7723;52.170;9.978;2022-08-01T09:08:55;1.77;;;1.67;;
15240;SDS011;7723;52.170;9.978;2022-08-01T09:11:23;3.15;;;1.83;;
15240;SDS011;7723;52.170;9.978;2022-08-01T09:14:03;1.60;;;1.50;;
15240;SDS011;7723;52.170;9.978;2022-08-01T09:16:34;2.83;;;1.83;;
15240;SDS011;7723;52.170;9.978;2022-08-01T09:19:09;1.83;;;1.45;;
15240;SDS011;7723;52.170;9.978;2022-08-01T09:21:38;2.22;;;1.90;;
15240;SDS011;7723;52.170;9.978;2022-08-01T09:24:12;1.58;;;1.48;;
15240;SDS011;7723;52.170;9.978;2022-08-01T09:26:42;2.70;;;1.77;;
15240;SDS011;7723;52.170;9.978;2022-08-01T09:29:16;1.63;;;1.52;;
15240;SDS011;7723;52.170;9.978;2022-08-01T09:31:46;2.22;;;1.50;;
15240;SDS011;7723;52.170;9.978;2022-08-01T09:34:13;1.88;;;1.77;;
15240;SDS011;7723;52.170;9.978;2022-08-01T09:36:45;2.55;;;1.52;;
15240;SDS011;7723;52.170;9.978;2022-08-01T09:39:16;2.75;;;1.50;;
15240;SDS011;7723;52.170;9.978;2022-08-01T09:41:44;1.38;;;1.25;;
15240;SDS011;7723;52.170;9.978;2022-08-01T09:44:12;2.58;;;1.33;;
15240;SDS011;7723;52.170;9.978;2022-08-01T09:46:50;2.42;;;1.60;;
15240;SDS011;7723;52.170;9.978;2022-08-01T09:49:29;1.73;;;1.30;;
15240;SDS011;7723;52.170;9.978;2022-08-01T09:51:58;3.58;;;1.42;;
15240;SDS011;7723;52.170;9.978;2022-08-01T09:54:29;3.28;;;1.65;;
15240;SDS011;7723;52.170;9.978;2022-08-01T09:57:14;1.30;;;1.20;;
15240;SDS011;7723;52.170;9.978;2022-08-01T09:59:43;2.40;;;1.20;;
15240;SDS011;7723;52.170;9.978;2022-08-01T10:02:13;1.00;;;1.00;;
15240;SDS011;7723;52.170;9.978;2022-08-01T10:04:52;1.25;;;1.13;;
15240;SDS011;7723;52.170;9.978;2022-08-01T10:07:20;1.33;;;1.20;;
15240;SDS011;7723;52.170;9.978;2022-08-01T10:09:47;3.63;;;1.38;;
15240;SDS011;7723;52.170;9.978;2022-08-01T10:12:16;1.38;;;1.23;;
15240;SDS011;7723;52.170;9.978;2022-08-01T10:14:45;3.25;;;1.45;;
15240;SDS011;7723;52.170;9.978;2022-08-01T10:17:16;3.80;;;1.52;;
15240;SDS011;7723;52.170;9.978;2022-08-01T10:19:44;1.80;;;1.70;;
15240;SDS011;7723;52.170;9.978;2022-08-01T10:22:12;2.08;;;1.60;;
15240;SDS011;7723;52.170;9.978;2022-08-01T10:24:42;1.77;;;1.63;;
15240;SDS011;7723;52.170;9.978;2022-08-01T10:27:11;2.67;;;1.40;;
15240;SDS011;7723;52.170;9.978;2022-08-01T10:29:42;2.28;;;1.30;;
15240;SDS011;7723;52.170;9.978;2022-08-01T10:32:12;2.08;;;1.25;;
15240;SDS011;7723;52.170;9.978;2022-08-01T10:34:41;1.98;;;1.23;;
15240;SDS011;7723;52.170;9.978;2022-08-01T10:37:09;0.93;;;0.93;;
15240;SDS011;7723;52.170;9.978;2022-08-01T10:39:36;1.05;;;0.93;;
15240;SDS011;7723;52.170;9.978;2022-08-01T10:42:05;1.40;;;1.05;;
15240;SDS011;7723;52.170;9.978;2022-08-01T10:44:35;1.77;;;1.20;;
15240;SDS011;7723;52.170;9.978;2022-08-01T10:47:06;1.05;;;0.98;;
15240;SDS011;7723;52.170;9.978;2022-08-01T10:49:38;1.67;;;1.10;;
15240;SDS011;7723;52.170;9.978;2022-08-01T10:52:13;1.58;;;0.85;;
15240;SDS011;7723;52.170;9.978;2022-08-01T10:54:41;0.95;;;0.95;;
15240;SDS011;7723;52.170;9.978;2022-08-01T10:57:08;1.45;;;0.80;;
15240;SDS011;7723;52.170;9.978;2022-08-01T10:59:47;1.58;;;0.90;;
15240;SDS011;7723;52.170;9.978;2022-08-01T11:02:19;2.00;;;1.02;;
15240;SDS011;7723;52.170;9.978;2022-08-01T11:04:55;1.05;;;0.95;;
15240;SDS011;7723;52.170;9.978;2022-08-01T11:07:35;2.40;;;1.20;;
15240;SDS011;7723;52.170;9.978;2022-08-01T11:10:21;1.17;;;1.08;;
15240;SDS011;7723;52.170;9.978;2022-08-01T11:12:51;1.13;;;1.02;;
15240;SDS011;7723;52.170;9.978;2022-08-01T11:15:23;3.22;;;1.20;;
15240;SDS011;7723;52.170;9.978;2022-08-01T11:17:51;2.88;;;1.23;;
15240;SDS011;7723;52.170;9.978;2022-08-01T11:20:19;2.78;;;1.52;;
15240;SDS011;7723;52.170;9.978;2022-08-01T11:26:09;1.13;;;1.02;;
15240;SDS011;7723;52.170;9.978;2022-08-01T11:28:40;1.17;;;1.05;;
15240;SDS011;7723;52.170;9.978;2022-08-01T11:31:25;1.30;;;1.02;;
15240;SDS011;7723;52.170;9.978;2022-08-01T11:33:57;1.30;;;1.20;;
15240;SDS011;7723;52.170;9.978;2022-08-01T11:36:25;1.50;;;1.40;;
15240;SDS011;7723;52.170;9.978;2022-08-01T11:39:15;2.75;;;1.48;;
15240;SDS011;7723;52.170;9.978;2022-08-01T11:41:45;1.95;;;1.55;;
15240;SDS011;7723;52.170;9.978;2022-08-01T11:44:15;1.77;;;1.52;;
15240;SDS011;7723;52.170;9.978;2022-08-01T11:46:48;2.50;;;1.20;;
15240;SDS011;7723;52.170;9.978;2022-08-01T11:49:42;2.42;;;2.05;;
15240;SDS011;7723;52.170;9.978;2022-08-01T11:52:16;4.18;;;3.20;;
15240;SDS011;7723;52.170;9.978;2022-08-01T11:54:45;4.70;;;3.08;;
15240;SDS011;7723;52.170;9.978;2022-08-01T11:57:19;4.10;;;3.10;;
15240;SDS011;7723;52.170;9.978;2022-08-01T11:59:48;4.30;;;3.30;;
15240;SDS011;7723;52.170;9.978;2022-08-01T12:02:20;2.83;;;2.63;;
15240;SDS011;7723;52.170;9.978;2022-08-01T12:04:49;5.18;;;3.17;;
15240;SDS011;7723;52.170;9.978;2022-08-01T12:07:18;3.45;;;2.47;;
15240;SDS011;7723;52.170;9.978;2022-08-01T12:09:46;2.85;;;2.45;;
15240;SDS011;7723;52.170;9.978;2022-08-01T12:12:16;3.72;;;2.58;;
15240;SDS011;7723;52.170;9.978;2022-08-01T12:14:44;2.78;;;2.45;;
15240;SDS011;7723;52.170;9.978;2022-08-01T12:17:19;2.53;;;2.20;;
15240;SDS011;7723;52.170;9.978;2022-08-01T12:19:53;3.40;;;2.70;;
15240;SDS011;7723;52.170;9.978;2022-08-01T12:22:21;3.20;;;2.45;;
15240;SDS011;7723;52.170;9.978;2022-08-01T12:24:50;3.33;;;2.13;;
15240;SDS011;7723;52.170;9.978;2022-08-01T12:27:25;3.50;;;2.40;;
15240;SDS011;7723;52.170;9.978;2022-08-01T12:29:54;3.20;;;2.08;;
15240;SDS011;7723;52.170;9.978;2022-08-01T12:32:22;3.20;;;2.53;;
15240;SDS011;7723;52.170;9.978;2022-08-01T12:34:51;3.22;;;2.78;;
15240;SDS011;7723;52.170;9.978;2022-08-01T12:37:20;4.43;;;3.42;;
15240;SDS011;7723;52.170;9.978;2022-08-01T12:39:47;3.42;;;3.13;;
15240;SDS011;7723;52.170;9.978;2022-08-01T12:42:14;6.05;;;3.47;;
15240;SDS011;7723;52.170;9.978;2022-08-01T12:44:44;4.43;;;3.50;;
15240;SDS011;7723;52.170;9.978;2022-08-01T12:47:14;5.47;;;3.03;;
15240;SDS011;7723;52.170;9.978;2022-08-01T12:49:42;5.13;;;2.85;;
15240;SDS011;7723;52.170;9.978;2022-08-01T12:52:11;3.97;;;2.75;;
15240;SDS011;7723;52.170;9.978;2022-08-01T12:57:37;3.15;;;2.90;;
15240;SDS011;7723;52.170;9.978;2022-08-01T13:00:20;4.93;;;3.00;;
15240;SDS011;7723;52.170;9.978;2022-08-01T13:02:49;4.13;;;3.08;;
15240;SDS011;7723;52.170;9.978;2022-08-01T13:05:27;3.97;;;2.58;;
15240;SDS011;7723;52.170;9.978;2022-08-01T13:08:09;3.35;;;2.40;;
15240;SDS011;7723;52.170;9.978;2022-08-01T13:10:37;2.20;;;2.00;;
15240;SDS011;7723;52.170;9.978;2022-08-01T13:13:04;2.80;;;2.50;;
15240;SDS011;7723;52.170;9.978;2022-08-01T13:15:33;3.17;;;2.38;;
15240;SDS011;7723;52.170;9.978;2022-08-01T13:20:50;5.05;;;2.95;;
15240;SDS011;7723;52.170;9.978;2022-08-01T13:23:32;3.92;;;2.67;;
15240;SDS011;7723;52.170;9.978;2022-08-01T13:25:59;5.13;;;3.42;;
15240;SDS011;7723;52.170;9.978;2022-08-01T13:28:27;4.95;;;3.90;;
15240;SDS011;7723;52.170;9.978;2022-08-01T13:31:00;4.63;;;3.60;;
15240;SDS011;7723;52.170;9.978;2022-08-01T13:33:39;4.22;;;3.75;;
15240;SDS011;7723;52.170;9.978;2022-08-01T13:36:08;4.70;;;3.70;;
15240;SDS011;7723;52.170;9.978;2022-08-01T13:38:36;4.50;;;3.42;;
15240;SDS011;7723;52.170;9.978;2022-08-01T13:41:20;4.60;;;3.75;;
15240;SDS011;7723;52.170;9.978;2022-08-01T13:43:47;3.25;;;2.80;;
15240;SDS011;7723;52.170;9.978;2022-08-01T13:46:16;3.33;;;3.03;;
15240;SDS011;7723;52.170;9.978;2022-08-01T13:48:44;3.70;;;2.35;;
15240;SDS011;7723;52.170;9.978;2022-08-01T13:51:11;3.28;;;2.70;;
15240;SDS011;7723;52.170;9.978;2022-08-01T13:53:38;4.55;;;2.50;;
15240;SDS011;7723;52.170;9.978;2022-08-01T13:56:05;3.20;;;2.50;;
15240;SDS011;7723;52.170;9.978;2022-08-01T13:58:32;5.13;;;2.55;;
15240;SDS011;7723;52.170;9.978;2022-08-01T14:00:59;4.30;;;2.78;;
15240;SDS011;7723;52.170;9.978;2022-08-01T14:03:28;3.03;;;2.72;;
15240;SDS011;7723;52.170;9.978;2022-08-01T14:05:55;4.18;;;2.40;;
15240;SDS011;7723;52.170;9.978;2022-08-01T14:08:22;2.97;;;2.60;;
15240;SDS011;7723;52.170;9.978;2022-08-01T14:10:49;8.30;;;3.50;;
15240;SDS011;7723;52.170;9.978;2022-08-01T14:13:17;3.70;;;2.53;;
15240;SDS011;7723;52.170;9.978;2022-08-01T14:15:44;3.30;;;3.00;;
15240;SDS011;7723;52.170;9.978;2022-08-01T14:18:11;4.65;;;3.20;;
15240;SDS011;7723;52.170;9.978;2022-08-01T14:20:39;3.92;;;2.88;;
15240;SDS011;7723;52.170;9.978;2022-08-01T14:23:07;5.55;;;2.90;;
15240;SDS011;7723;52.170;9.978;2022-08-01T14:25:34;4.18;;;3.15;;
15240;SDS011;7723;52.170;9.978;2022-08-01T14:28:01;3.60;;;3.05;;
15240;SDS011;7723;52.170;9.978;2022-08-01T14:30:29;4.85;;;3.33;;
15240;SDS011;7723;52.170;9.978;2022-08-01T14:32:56;3.17;;;2.85;;
15240;SDS011;7723;52.170;9.978;2022-08-01T14:35:23;3.90;;;3.03;;
15240;SDS011;7723;52.170;9.978;2022-08-01T14:37:52;4.35;;;3.45;;
15240;SDS011;7723;52.170;9.978;2022-08-01T14:40:19;4.50;;;3.50;;
15240;SDS011;7723;52.170;9.978;2022-08-01T14:42:46;5.63;;;3.38;;
15240;SDS011;7723;52.170;9.978;2022-08-01T14:45:13;4.13;;;3.78;;
15240;SDS011;7723;52.170;9.978;2022-08-01T14:47:41;3.45;;;2.78;;
15240;SDS011;7723;52.170;9.978;2022-08-01T14:50:09;3.95;;;2.58;;
15240;SDS011;7723;52.170;9.978;2022-08-01T14:52:38;4.07;;;2.88;;
15240;SDS011;7723;52.170;9.978;2022-08-01T14:55:08;2.65;;;2.45;;
15240;SDS011;7723;52.170;9.978;2022-08-01T14:57:36;5.50;;;2.90;;
15240;SDS011;7723;52.170;9.978;2022-08-01T15:00:05;2.95;;;2.55;;
15240;SDS011;7723;52.170;9.978;2022-08-01T15:02:37;4.13;;;2.45;;
15240;SDS011;7723;52.170;9.978;2022-08-01T15:05:05;4.20;;;2.65;;
15240;SDS011;7723;52.170;9.978;2022-08-01T15:07:33;3.95;;;2.67;;
15240;SDS011;7723;52.170;9.978;2022-08-01T15:10:01;4.32;;;2.67;;
15240;SDS011;7723;52.170;9.978;2022-08-01T15:12:30;5.63;;;2.78;;
15240;SDS011;7723;52.170;9.978;2022-08-01T15:14:58;4.25;;;2.70;;
15240;SDS011;7723;52.170;9.978;2022-08-01T15:17:26;3.45;;;2.80;;
15240;SDS011;7723;52.170;9.978;2022-08-01T15:19:56;6.32;;;3.10;;
15240;SDS011;7723;52.170;9.978;2022-08-01T15:22:33;4.13;;;3.05;;
15240;SDS011;7723;52.170;9.978;2022-08-01T15:25:01;3.97;;;3.58;;